createdAt,value
2023-12-23T00:01:39.528Z,97024.75
2023-12-23T00:04:06.668Z,97052.25
2023-12-23T00:06:33.667Z,97040.38
2023-12-23T00:09:00.713Z,97045.41
2023-12-23T00:11:27.765Z,97048.16
2023-12-23T00:13:54.844Z,97055.97
2023-12-23T00:16:21.921Z,97063.00
2023-12-23T00:18:49.097Z,97069.13
2023-12-23T00:21:16.284Z,97054.28
2023-12-23T00:23:43.376Z,97051.69
2023-12-23T00:26:10.419Z,97071.56
2023-12-23T00:28:37.556Z,97078.47
2023-12-23T00:31:04.811Z,97078.41
2023-12-23T00:33:31.923Z,97084.63
2023-12-23T00:35:59.092Z,97094.06
2023-12-23T00:38:26.167Z,97105.56
2023-12-23T00:40:53.420Z,97098.31
2023-12-23T00:43:20.585Z,97096.69
2023-12-23T00:45:47.627Z,97103.88
2023-12-23T00:48:14.908Z,97099.44
2023-12-23T00:50:42.117Z,97104.56
2023-12-23T00:53:09.274Z,97118.41
2023-12-23T00:55:36.515Z,97118.34
2023-12-23T00:58:03.693Z,97131.34
2023-12-23T01:00:30.981Z,97136.63
2023-12-23T01:02:58.096Z,97133.34
2023-12-23T01:05:25.226Z,97142.22
2023-12-23T01:07:52.672Z,97143.69
2023-12-23T01:10:23.494Z,97137.56
2023-12-23T01:12:50.565Z,97134.47
2023-12-23T01:15:17.700Z,97145.38
2023-12-23T01:17:44.924Z,97140.94
2023-12-23T01:20:12.794Z,97138.00
2023-12-23T01:22:39.964Z,97148.94
2023-12-23T01:25:07.272Z,97151.50
2023-12-23T01:27:34.372Z,97153.94
2023-12-23T01:30:01.409Z,97164.41
2023-12-23T01:32:29.083Z,97168.94
2023-12-23T01:34:56.281Z,97160.84
2023-12-23T01:37:23.569Z,97163.09
2023-12-23T01:39:50.685Z,97160.75
2023-12-23T01:42:17.692Z,97174.84
2023-12-23T01:44:44.748Z,97176.38
2023-12-23T01:47:12.477Z,97174.53
2023-12-23T01:49:41.716Z,97171.06
2023-12-23T01:52:09.244Z,97156.22
2023-12-23T01:54:36.533Z,97172.69
2023-12-23T01:57:03.753Z,97176.28
2023-12-23T01:59:30.859Z,97174.66
2023-12-23T02:01:59.107Z,97180.94
2023-12-23T02:04:26.556Z,97186.38
2023-12-23T02:06:53.711Z,97196.00
2023-12-23T02:09:20.899Z,97203.72
2023-12-23T02:12:16.541Z,97207.13
2023-12-23T02:15:04.464Z,97206.53
2023-12-23T02:17:31.543Z,97197.75
2023-12-23T02:19:58.666Z,97200.94
2023-12-23T02:22:25.885Z,97211.22
2023-12-23T02:24:52.981Z,97206.56
2023-12-23T02:27:28.944Z,97207.25
2023-12-23T02:29:57.062Z,97209.16
2023-12-23T02:32:25.881Z,97200.03
2023-12-23T02:34:54.712Z,97188.03
2023-12-23T02:37:21.809Z,97205.56
2023-12-23T02:39:48.937Z,97216.94
2023-12-23T02:42:15.951Z,97211.34
2023-12-23T02:44:43.060Z,97227.03
2023-12-23T02:47:10.166Z,97209.09
2023-12-23T02:49:37.375Z,97228.53
2023-12-23T02:52:04.831Z,97226.47
2023-12-23T02:54:31.904Z,97236.22
2023-12-23T02:56:59.032Z,97241.41
2023-12-23T02:59:26.126Z,97247.09
2023-12-23T03:01:54.498Z,97233.31
2023-12-23T03:04:21.719Z,97242.19
2023-12-23T03:06:49.057Z,97251.31
2023-12-23T03:09:16.079Z,97247.63
2023-12-23T03:11:43.135Z,97268.66
2023-12-23T03:14:10.244Z,97257.75
2023-12-23T03:16:37.427Z,97262.78
2023-12-23T03:19:04.937Z,97268.44
2023-12-23T03:21:32.056Z,97261.34
2023-12-23T03:23:59.400Z,97272.28
2023-12-23T03:26:26.491Z,97272.97
2023-12-23T03:28:53.666Z,97281.81
2023-12-23T03:31:20.966Z,97283.31
2023-12-23T03:33:48.023Z,97296.34
2023-12-23T03:36:17.382Z,97298.91
2023-12-23T03:38:44.488Z,97292.28
2023-12-23T03:41:11.988Z,97298.16
2023-12-23T03:43:39.086Z,97309.94
2023-12-23T03:46:06.221Z,97310.50
2023-12-23T03:48:33.310Z,97318.06
2023-12-23T03:51:00.385Z,97320.25
2023-12-23T03:53:27.477Z,97330.84
2023-12-23T03:55:54.695Z,97321.50
2023-12-23T03:58:21.866Z,97337.22
2023-12-23T04:00:48.998Z,97326.78
2023-12-23T04:03:16.243Z,97356.91
2023-12-23T04:05:43.338Z,97356.47
2023-12-23T04:08:10.513Z,97361.44
2023-12-23T04:10:37.635Z,97361.88
2023-12-23T04:13:04.977Z,97353.81
2023-12-23T04:15:32.053Z,97365.91
2023-12-23T04:17:59.145Z,97369.88
2023-12-23T04:20:26.440Z,97373.53
2023-12-23T04:22:53.937Z,97369.03
2023-12-23T04:25:22.914Z,97378.78
2023-12-23T04:27:52.716Z,97386.41
2023-12-23T04:30:19.992Z,97389.91
2023-12-23T04:32:48.418Z,97399.00
2023-12-23T04:35:15.799Z,97391.88
2023-12-23T04:37:43.248Z,97392.78
2023-12-23T04:40:12.099Z,97391.00
2023-12-23T04:42:39.119Z,97388.75
2023-12-23T04:45:08.100Z,97400.63
2023-12-23T04:47:35.251Z,97413.06
2023-12-23T04:50:02.515Z,97397.94
2023-12-23T04:52:29.564Z,97405.19
2023-12-23T04:54:56.627Z,97411.31
2023-12-23T04:57:23.722Z,97424.66
2023-12-23T04:59:50.915Z,97422.06
2023-12-23T05:02:18.080Z,97438.25
2023-12-23T05:04:47.456Z,97442.47
2023-12-23T05:07:14.615Z,97442.88
2023-12-23T05:09:41.830Z,97443.84
2023-12-23T05:12:09.116Z,97436.25
2023-12-23T05:14:36.189Z,97454.94
2023-12-23T05:17:03.239Z,97455.06
2023-12-23T05:19:30.398Z,97465.63
2023-12-23T05:21:57.448Z,97461.97
2023-12-23T05:24:24.579Z,97476.28
2023-12-23T05:26:51.726Z,97469.44
2023-12-23T05:29:19.368Z,97479.91
2023-12-23T05:31:46.576Z,97476.78
2023-12-23T05:34:13.753Z,97478.19
2023-12-23T05:36:40.867Z,97484.09
2023-12-23T05:39:07.977Z,97488.09
2023-12-23T05:41:35.031Z,97508.66
2023-12-23T05:44:02.896Z,97509.59
2023-12-23T05:46:30.664Z,97524.91
2023-12-23T05:48:57.918Z,97515.44
2023-12-23T05:51:25.122Z,97530.91
2023-12-23T05:53:52.124Z,97519.75
2023-12-23T05:56:19.165Z,97519.59
2023-12-23T05:58:46.319Z,97546.59
2023-12-23T06:01:13.399Z,97530.97
2023-12-23T06:03:40.476Z,97537.44
2023-12-23T06:06:07.752Z,97532.38
2023-12-23T06:08:34.826Z,97540.59
2023-12-23T06:11:03.660Z,97545.00
2023-12-23T06:13:32.367Z,97539.69
2023-12-23T06:15:59.522Z,97552.06
2023-12-23T06:18:26.930Z,97548.56
2023-12-23T06:20:54.101Z,97557.75
2023-12-23T06:23:21.255Z,97559.34
2023-12-23T06:25:48.345Z,97559.41
2023-12-23T06:28:15.357Z,97574.00
2023-12-23T06:30:43.437Z,97569.66
2023-12-23T06:33:10.668Z,97580.13
2023-12-23T06:35:37.997Z,97584.97
2023-12-23T06:38:05.212Z,97586.34
2023-12-23T06:40:32.315Z,97585.47
2023-12-23T06:42:59.340Z,97584.56
2023-12-23T06:45:26.348Z,97600.16
2023-12-23T06:47:53.643Z,97598.44
2023-12-23T06:50:20.857Z,97608.31
2023-12-23T06:52:48.220Z,97612.03
2023-12-23T06:55:15.366Z,97603.09
2023-12-23T06:57:42.458Z,97615.38
2023-12-23T07:00:10.653Z,97618.38
2023-12-23T07:02:37.651Z,97622.06
2023-12-23T07:05:05.350Z,97612.94
2023-12-23T07:07:32.405Z,97619.13
2023-12-23T07:10:04.980Z,97621.94
2023-12-23T07:12:34.958Z,97624.38
2023-12-23T07:15:04.485Z,97632.81
2023-12-23T07:17:38.680Z,97629.31
2023-12-23T07:20:10.779Z,97645.25
2023-12-23T07:22:38.158Z,97646.41
2023-12-23T07:25:06.394Z,97652.06
2023-12-23T07:27:33.753Z,97638.91
2023-12-23T07:30:00.867Z,97650.81
2023-12-23T07:32:28.118Z,97649.88
2023-12-23T07:34:55.299Z,97653.25
2023-12-23T07:37:22.350Z,97654.47
2023-12-23T07:39:49.489Z,97646.44
2023-12-23T07:42:16.615Z,97647.28
2023-12-23T07:44:43.712Z,97659.13
2023-12-23T07:47:11.573Z,97665.72
2023-12-23T07:49:39.510Z,97654.09
2023-12-23T07:52:08.796Z,97667.84
2023-12-23T07:54:36.051Z,97681.00
2023-12-23T07:57:03.336Z,97676.81
2023-12-23T07:59:30.364Z,97685.66
2023-12-23T08:01:57.449Z,97680.88
2023-12-23T08:04:24.604Z,97668.97
2023-12-23T08:06:51.735Z,97696.53
2023-12-23T08:09:18.888Z,97686.28
2023-12-23T08:11:46.098Z,97697.19
2023-12-23T08:14:13.264Z,97689.06
2023-12-23T08:16:40.391Z,97701.06
2023-12-23T08:19:07.496Z,97694.84
2023-12-23T08:21:34.721Z,97699.13
2023-12-23T08:24:05.220Z,97683.13
2023-12-23T08:26:32.538Z,97697.09
2023-12-23T08:28:59.635Z,97696.44
2023-12-23T08:31:26.888Z,97703.72
2023-12-23T08:33:54.094Z,97697.31
2023-12-23T08:36:21.214Z,97693.22
2023-12-23T08:38:48.506Z,97694.03
2023-12-23T08:41:15.805Z,97702.94
2023-12-23T08:43:43.493Z,97687.28
2023-12-23T08:46:10.653Z,97694.78
2023-12-23T08:48:38.852Z,97693.09
2023-12-23T08:51:06.118Z,97696.66
2023-12-23T08:53:33.413Z,97696.88
2023-12-23T08:56:00.658Z,97686.84
2023-12-23T08:58:27.802Z,97705.28
2023-12-23T09:00:54.926Z,97705.69
2023-12-23T09:03:22.139Z,97708.44
2023-12-23T09:05:49.387Z,97714.72
2023-12-23T09:08:16.596Z,97718.72
2023-12-23T09:10:43.649Z,97717.28
2023-12-23T09:13:10.766Z,97714.50
2023-12-23T09:15:39.230Z,97727.25
2023-12-23T09:18:06.927Z,97732.00
2023-12-23T09:20:34.693Z,97728.00
2023-12-23T09:23:01.997Z,97731.94
2023-12-23T09:25:29.639Z,97718.06
2023-12-23T09:27:56.740Z,97726.22
2023-12-23T09:30:23.870Z,97733.22
2023-12-23T09:32:51.261Z,97734.41
2023-12-23T09:35:18.528Z,97712.34
2023-12-23T09:37:46.578Z,97720.38
2023-12-23T09:40:15.094Z,97713.91
2023-12-23T09:42:42.734Z,97728.69
2023-12-23T09:45:13.941Z,97727.50
2023-12-23T09:47:41.180Z,97723.66
2023-12-23T09:50:09.274Z,97721.06
2023-12-23T09:52:36.564Z,97726.16
2023-12-23T09:55:07.747Z,97721.97
2023-12-23T09:57:35.694Z,97725.72
2023-12-23T10:00:04.142Z,97708.41
2023-12-23T10:02:31.196Z,97725.00
2023-12-23T10:04:58.319Z,97728.47
2023-12-23T10:07:25.408Z,97709.38
2023-12-23T10:09:52.452Z,97715.63
2023-12-23T10:12:22.136Z,97699.09
2023-12-23T10:14:49.686Z,97704.97
2023-12-23T10:17:18.735Z,97715.22
2023-12-23T10:19:48.868Z,97717.69
2023-12-23T10:22:18.903Z,97715.63
2023-12-23T10:24:46.095Z,97706.78
2023-12-23T10:27:17.506Z,97714.16
2023-12-23T10:29:48.727Z,97707.75
2023-12-23T10:32:25.489Z,97707.50
2023-12-23T10:35:00.800Z,97698.50
2023-12-23T10:37:29.113Z,97707.25
2023-12-23T10:40:19.258Z,97703.78
2023-12-23T10:42:48.964Z,97700.28
2023-12-23T10:45:16.568Z,97701.34
2023-12-23T10:47:45.304Z,97699.81
2023-12-23T10:50:13.456Z,97692.69
2023-12-23T10:52:43.037Z,97700.50
2023-12-23T10:55:11.862Z,97704.53
2023-12-23T10:57:42.062Z,97706.44
2023-12-23T11:00:11.044Z,97695.44
2023-12-23T11:02:39.269Z,97709.38
2023-12-23T11:05:11.952Z,97691.28
2023-12-23T11:07:53.746Z,97693.31
2023-12-23T11:10:23.987Z,97679.13
2023-12-23T11:12:51.463Z,97678.09
2023-12-23T11:15:19.264Z,97689.16
2023-12-23T11:17:47.616Z,97684.75
2023-12-23T11:20:33.091Z,97680.53
2023-12-23T11:23:28.602Z,97691.34
2023-12-23T11:25:56.112Z,97692.59
2023-12-23T11:28:28.350Z,97703.53
2023-12-23T11:30:58.874Z,97704.34
2023-12-23T11:33:31.415Z,97700.94
2023-12-23T11:36:01.647Z,97697.41
2023-12-23T11:38:49.966Z,97700.56
2023-12-23T11:41:18.419Z,97689.78
2023-12-23T11:43:46.732Z,97688.56
2023-12-23T11:46:20.849Z,97694.59
2023-12-23T11:48:48.845Z,97695.09
2023-12-23T11:51:15.998Z,97687.28
2023-12-23T11:53:44.257Z,97693.97
2023-12-23T11:56:11.932Z,97689.19
2023-12-23T11:58:39.447Z,97690.31
2023-12-23T12:01:06.556Z,97688.88
2023-12-23T12:03:33.742Z,97688.47
2023-12-23T12:06:02.246Z,97694.69
2023-12-23T12:08:29.921Z,97699.91
2023-12-23T12:11:01.892Z,97709.69
2023-12-23T12:13:40.173Z,97701.25
2023-12-23T12:16:07.537Z,97717.81
2023-12-23T12:18:34.813Z,97715.34
2023-12-23T12:21:02.285Z,97720.53
2023-12-23T12:23:29.701Z,97710.59
2023-12-23T12:25:59.045Z,97702.31
2023-12-23T12:28:27.457Z,97702.69
2023-12-23T12:30:54.839Z,97707.09
2023-12-23T12:33:22.044Z,97713.38
2023-12-23T12:35:49.236Z,97715.44
2023-12-23T12:38:22.914Z,97716.25
2023-12-23T12:40:52.707Z,97723.06
2023-12-23T12:43:23.490Z,97721.13
2023-12-23T12:45:50.730Z,97716.47
2023-12-23T12:48:18.072Z,97730.75
2023-12-23T12:50:45.880Z,97729.56
2023-12-23T12:53:17.122Z,97717.72
2023-12-23T12:55:44.582Z,97733.94
2023-12-23T12:58:12.026Z,97737.34
2023-12-23T13:00:39.197Z,97744.19
2023-12-23T13:03:06.888Z,97749.94
2023-12-23T13:05:34.148Z,97753.28
2023-12-23T13:08:01.337Z,97758.41
2023-12-23T13:10:28.836Z,97771.41
2023-12-23T13:12:55.941Z,97771.47
2023-12-23T13:15:23.898Z,97763.31
2023-12-23T13:17:51.330Z,97771.03
2023-12-23T13:20:18.640Z,97759.91
2023-12-23T13:22:48.608Z,97772.22
2023-12-23T13:25:16.306Z,97766.09
2023-12-23T13:27:43.417Z,97773.53
2023-12-23T13:30:11.462Z,97788.25
2023-12-23T13:32:38.819Z,97791.16
2023-12-23T13:35:06.271Z,97806.09
2023-12-23T13:37:33.452Z,97799.56
2023-12-23T13:40:00.756Z,97816.13
2023-12-23T13:42:27.883Z,97809.59
2023-12-23T13:44:54.942Z,97819.59
2023-12-23T13:47:23.003Z,97825.47
2023-12-23T13:49:50.226Z,97807.91
2023-12-23T13:52:18.992Z,97833.13
2023-12-23T13:54:46.269Z,97826.81
2023-12-23T13:57:13.390Z,97834.41
2023-12-23T13:59:41.602Z,97837.25
2023-12-23T14:02:09.290Z,97833.06
2023-12-23T14:04:38.125Z,97833.56
2023-12-23T14:07:05.370Z,97837.50
2023-12-23T14:09:34.913Z,97833.22
2023-12-23T14:12:02.160Z,97842.47
2023-12-23T14:14:29.292Z,97828.53
2023-12-23T14:16:56.390Z,97834.13
2023-12-23T14:19:23.784Z,97818.66
2023-12-23T14:21:51.059Z,97833.78
2023-12-23T14:24:18.306Z,97834.13
2023-12-23T14:26:46.357Z,97850.53
2023-12-23T14:29:13.822Z,97850.94
2023-12-23T14:31:41.190Z,97852.03
2023-12-23T14:34:08.325Z,97859.69
2023-12-23T14:36:35.436Z,97859.59
2023-12-23T14:39:03.816Z,97866.34
2023-12-23T14:41:31.304Z,97869.00
2023-12-23T14:43:58.442Z,97872.13
2023-12-23T14:46:25.630Z,97875.22
2023-12-23T14:48:52.840Z,97876.97
2023-12-23T14:51:21.650Z,97880.56
2023-12-23T14:53:48.789Z,97871.06
2023-12-23T14:56:15.902Z,97891.63
2023-12-23T14:58:42.970Z,97874.16
2023-12-23T15:01:10.368Z,97869.41
2023-12-23T15:03:37.640Z,97883.31
2023-12-23T15:06:05.090Z,97889.81
2023-12-23T15:08:32.333Z,97894.19
2023-12-23T15:10:59.457Z,97896.31
2023-12-23T15:13:27.290Z,97902.34
2023-12-23T15:15:54.474Z,97889.53
2023-12-23T15:18:21.971Z,97899.56
2023-12-23T15:20:49.154Z,97901.22
2023-12-23T15:23:16.461Z,97911.88
2023-12-23T15:25:43.528Z,97908.19
2023-12-23T15:28:10.559Z,97912.44
2023-12-23T15:30:37.681Z,97917.78
2023-12-23T15:33:05.071Z,97924.44
2023-12-23T15:35:32.439Z,97934.72
2023-12-23T15:37:59.774Z,97926.41
2023-12-23T15:40:26.818Z,97941.63
2023-12-23T15:42:54.395Z,97946.69
2023-12-23T15:45:21.694Z,97949.66
2023-12-23T15:47:48.935Z,97953.06
2023-12-23T15:50:16.459Z,97955.91
2023-12-23T15:52:43.542Z,97957.59
2023-12-23T15:55:11.894Z,97963.53
2023-12-23T15:57:39.200Z,97966.81
2023-12-23T16:00:07.573Z,97962.06
2023-12-23T16:02:34.732Z,97977.22
2023-12-23T16:05:02.884Z,97974.59
2023-12-23T16:07:30.035Z,97982.47
2023-12-23T16:09:57.484Z,97984.47
2023-12-23T16:12:24.641Z,97983.69
2023-12-23T16:14:51.715Z,97990.28
2023-12-23T16:17:20.236Z,97989.22
2023-12-23T16:19:47.561Z,98005.19
2023-12-23T16:22:14.660Z,98005.50
2023-12-23T16:24:44.950Z,98016.69
2023-12-23T16:27:11.978Z,98013.13
2023-12-23T16:29:43.140Z,98027.56
2023-12-23T16:32:10.384Z,98024.81
2023-12-23T16:34:37.556Z,98028.22
2023-12-23T16:37:04.946Z,98030.66
2023-12-23T16:39:32.042Z,98039.16
2023-12-23T16:41:59.172Z,98035.78
2023-12-23T16:44:26.443Z,98036.50
2023-12-23T16:46:53.609Z,98042.19
2023-12-23T16:49:20.745Z,98046.84
2023-12-23T16:51:47.938Z,98055.47
2023-12-23T16:54:15.404Z,98050.41
2023-12-23T16:56:42.508Z,98054.66
2023-12-23T16:59:09.586Z,98046.94
2023-12-23T17:01:36.884Z,98057.72
2023-12-23T17:04:04.107Z,98060.28
2023-12-23T17:06:31.212Z,98058.88
2023-12-23T17:08:58.394Z,98060.66
2023-12-23T17:11:25.548Z,98076.28
2023-12-23T17:13:52.707Z,98071.69
2023-12-23T17:16:19.903Z,98086.69
2023-12-23T17:18:47.122Z,98087.03
2023-12-23T17:21:14.289Z,98090.13
2023-12-23T17:23:42.098Z,98091.97
2023-12-23T17:26:09.269Z,98095.72
2023-12-23T17:28:36.612Z,98095.31
2023-12-23T17:31:03.988Z,98104.38
2023-12-23T17:33:31.327Z,98097.75
2023-12-23T17:35:59.559Z,98111.91
2023-12-23T17:38:26.622Z,98115.19
2023-12-23T17:40:54.115Z,98119.16
2023-12-23T17:43:21.215Z,98122.47
2023-12-23T17:45:48.307Z,98122.69
2023-12-23T17:48:15.420Z,98131.00
2023-12-23T17:50:43.659Z,98128.78
2023-12-23T17:53:10.812Z,98127.66
2023-12-23T17:55:38.036Z,98123.19
2023-12-23T17:58:05.287Z,98136.06
2023-12-23T18:00:32.314Z,98139.91
2023-12-23T18:02:59.553Z,98148.66
2023-12-23T18:05:26.652Z,98146.81
2023-12-23T18:07:56.539Z,98154.34
2023-12-23T18:10:23.666Z,98152.91
2023-12-23T18:12:50.909Z,98148.97
2023-12-23T18:15:18.275Z,98153.84
2023-12-23T18:17:45.508Z,98151.16
2023-12-23T18:20:12.852Z,98151.19
2023-12-23T18:22:39.944Z,98158.38
2023-12-23T18:25:07.587Z,98166.03
2023-12-23T18:27:34.622Z,98174.84
2023-12-23T18:30:01.751Z,98169.81
2023-12-23T18:32:29.231Z,98180.38
2023-12-23T18:34:56.407Z,98179.66
2023-12-23T18:37:23.603Z,98179.97
2023-12-23T18:39:50.735Z,98188.00
2023-12-23T18:42:18.566Z,98194.41
2023-12-23T18:44:45.700Z,98192.13
2023-12-23T18:47:12.805Z,98206.75
2023-12-23T18:49:39.986Z,98208.47
2023-12-23T18:52:07.180Z,98210.75
2023-12-23T18:54:34.243Z,98214.22
2023-12-23T18:57:04.041Z,98214.50
2023-12-23T18:59:31.410Z,98216.38
2023-12-23T19:01:58.697Z,98219.22
2023-12-23T19:04:25.852Z,98218.13
2023-12-23T19:06:53.083Z,98232.22
2023-12-23T19:09:20.166Z,98220.25
2023-12-23T19:11:47.220Z,98227.50
2023-12-23T19:14:14.349Z,98223.41
2023-12-23T19:16:41.469Z,98224.97
2023-12-23T19:19:08.714Z,98220.44
2023-12-23T19:21:44.130Z,98221.47
2023-12-23T19:24:13.068Z,98226.31
2023-12-23T19:26:40.240Z,98233.22
2023-12-23T19:29:09.572Z,98238.91
2023-12-23T19:31:43.849Z,98236.84
2023-12-23T19:34:11.096Z,98245.38
2023-12-23T19:36:38.458Z,98239.88
2023-12-23T19:39:05.703Z,98243.88
2023-12-23T19:41:32.906Z,98252.91
2023-12-23T19:44:00.047Z,98256.78
2023-12-23T19:46:27.525Z,98260.69
2023-12-23T19:48:56.631Z,98261.25
2023-12-23T19:51:24.478Z,98256.69
2023-12-23T19:53:52.184Z,98269.38
2023-12-23T19:56:19.462Z,98271.84
2023-12-23T19:58:46.577Z,98280.97
2023-12-23T20:01:13.718Z,98281.97
2023-12-23T20:03:44.098Z,98285.00
2023-12-23T20:06:12.533Z,98286.06
2023-12-23T20:08:40.326Z,98293.06
2023-12-23T20:11:07.440Z,98290.88
2023-12-23T20:13:35.943Z,98299.19
2023-12-23T20:16:05.826Z,98305.38
2023-12-23T20:18:33.584Z,98311.28
2023-12-23T20:21:00.641Z,98307.22
2023-12-23T20:23:27.754Z,98309.03
2023-12-23T20:25:54.957Z,98318.00
2023-12-23T20:28:22.051Z,98320.94
2023-12-23T20:30:49.230Z,98318.53
2023-12-23T20:33:16.483Z,98329.94
2023-12-23T20:35:43.753Z,98320.28
2023-12-23T20:38:10.889Z,98326.59
2023-12-23T20:40:38.328Z,98323.38
2023-12-23T20:43:05.550Z,98328.59
2023-12-23T20:45:32.722Z,98325.06
2023-12-23T20:48:00.729Z,98325.06
2023-12-23T20:50:27.978Z,98329.53
2023-12-23T20:52:55.462Z,98328.09
2023-12-23T20:55:22.635Z,98329.31
2023-12-23T20:57:49.733Z,98332.94
2023-12-23T21:00:21.965Z,98335.38
2023-12-23T21:02:49.303Z,98335.53
2023-12-23T21:05:16.604Z,98334.44
2023-12-23T21:07:43.882Z,98342.97
2023-12-23T21:10:11.012Z,98343.78
2023-12-23T21:12:38.205Z,98352.75
2023-12-23T21:15:05.963Z,98349.50
2023-12-23T21:17:34.766Z,98361.53
2023-12-23T21:20:02.881Z,98366.31
2023-12-23T21:22:30.377Z,98374.00
2023-12-23T21:24:57.743Z,98367.50
2023-12-23T21:27:25.026Z,98369.41
2023-12-23T21:29:52.121Z,98371.59
2023-12-23T21:32:19.296Z,98374.25
2023-12-23T21:34:47.323Z,98373.84
2023-12-23T21:37:14.619Z,98380.06
2023-12-23T21:39:42.442Z,98383.00
2023-12-23T21:42:09.612Z,98381.16
2023-12-23T21:44:36.974Z,98388.97
2023-12-23T21:47:04.737Z,98379.44
2023-12-23T21:49:32.269Z,98370.59
2023-12-23T21:52:00.065Z,98370.28
2023-12-23T21:54:27.270Z,98364.31
2023-12-23T21:56:54.301Z,98364.13
2023-12-23T21:59:21.543Z,98364.41
2023-12-23T22:01:48.649Z,98373.41
2023-12-23T22:04:15.652Z,98367.50
2023-12-23T22:06:44.318Z,98375.06
2023-12-23T22:09:11.312Z,98384.81
2023-12-23T22:11:38.814Z,98388.09
2023-12-23T22:14:06.007Z,98386.16
2023-12-23T22:16:33.048Z,98384.06
2023-12-23T22:19:00.064Z,98376.47
2023-12-23T22:21:27.543Z,98390.66
2023-12-23T22:23:54.638Z,98384.78
2023-12-23T22:26:21.773Z,98388.19
2023-12-23T22:28:48.910Z,98368.53
2023-12-23T22:31:16.060Z,98400.06
2023-12-23T22:33:43.519Z,98389.00
2023-12-23T22:36:11.315Z,98394.31
2023-12-23T22:38:38.522Z,98406.19
2023-12-23T22:41:06.403Z,98415.94
2023-12-23T22:43:33.847Z,98415.75
2023-12-23T22:46:00.925Z,98415.97
2023-12-23T22:48:28.140Z,98415.34
2023-12-23T22:50:55.179Z,98433.16
2023-12-23T22:53:22.265Z,98418.81
2023-12-23T22:55:49.314Z,98421.34
2023-12-23T22:58:16.444Z,98418.88
2023-12-23T23:00:44.608Z,98429.78
2023-12-23T23:03:11.672Z,98428.44
2023-12-23T23:05:39.119Z,98431.88
2023-12-23T23:08:07.379Z,98433.38
2023-12-23T23:10:34.944Z,98442.69
2023-12-23T23:13:02.193Z,98439.25
2023-12-23T23:15:29.249Z,98441.22
2023-12-23T23:17:56.478Z,98444.38
2023-12-23T23:20:23.719Z,98438.13
2023-12-23T23:22:51.073Z,98456.97
2023-12-23T23:25:18.418Z,98450.38
2023-12-23T23:27:45.491Z,98454.88
2023-12-23T23:30:12.947Z,98455.97
2023-12-23T23:32:40.283Z,98441.81
2023-12-23T23:35:11.637Z,98460.16
2023-12-23T23:37:39.732Z,98460.78
2023-12-23T23:40:07.977Z,98457.09
2023-12-23T23:42:35.008Z,98466.53
2023-12-23T23:45:02.086Z,98467.78
2023-12-23T23:47:29.371Z,98462.84
2023-12-23T23:49:56.761Z,98478.22
2023-12-23T23:52:23.906Z,98477.94
2023-12-23T23:54:51.023Z,98491.09
2023-12-23T23:57:18.119Z,98487.72
2023-12-23T23:59:45.329Z,98492.91
